Time;durP1;ratioP1;P1;durP2;ratioP2;P2;SDS_P1;SDS_P2;PMS_P1;PMS_P2;Temp;Humidity;BMP_temperature;BMP_pressure;BME280_temperature;BME280_humidity;BME280_pressure;Samples;Min_cycle;Max_cycle;Signal;HPM_P1;HPM_P2
2023/12/22 00:02:09;;;;;;;1999.90;999.90;;;6.30;99.90;;;;;;5031118;28;20117;-70
2023/12/22 00:04:35;;;;;;;1999.90;999.90;;;6.30;99.90;;;;;;5035710;28;20029;-70
2023/12/22 00:07:00;;;;;;;1999.90;999.90;;;6.30;99.90;;;;;;5029260;28;20034;-70
2023/12/22 00:09:26;;;;;;;1999.90;999.90;;;6.30;99.90;;;;;;5030586;28;20037;-71
2023/12/22 00:11:52;;;;;;;1999.90;999.90;;;6.30;99.90;;;;;;5034198;28;20029;-71
2023/12/22 00:14:17;;;;;;;1999.90;999.90;;;6.40;99.90;;;;;;5027955;28;20026;-70
2023/12/22 00:16:43;;;;;;;1999.90;999.90;;;6.40;99.90;;;;;;5035212;28;20025;-70
2023/12/22 00:19:09;;;;;;;1999.90;999.90;;;6.40;99.90;;;;;;5035537;28;20137;-71
2023/12/22 00:21:34;;;;;;;1999.90;999.90;;;6.50;99.90;;;;;;5033646;28;20037;-71
2023/12/22 00:24:00;;;;;;;1999.90;999.90;;;6.50;99.90;;;;;;5031319;28;20081;-70
2023/12/22 00:26:26;;;;;;;1999.90;999.90;;;6.50;99.90;;;;;;5032124;28;20033;-71
2023/12/22 00:28:51;;;;;;;1999.90;999.90;;;6.60;99.90;;;;;;5034776;28;20074;-71
2023/12/22 00:31:18;;;;;;;1999.90;999.90;;;6.60;99.90;;;;;;5030407;28;20044;-71
2023/12/22 00:33:43;;;;;;;1999.90;999.90;;;6.60;99.90;;;;;;5023407;28;20026;-71
2023/12/22 00:36:09;;;;;;;1999.90;999.90;;;6.70;99.90;;;;;;5034597;28;20112;-72
2023/12/22 00:38:35;;;;;;;1999.90;999.90;;;6.70;99.90;;;;;;5034344;28;20409;-71
2023/12/22 00:41:01;;;;;;;1999.90;999.90;;;6.70;99.90;;;;;;5035111;28;20444;-71
2023/12/22 00:43:26;;;;;;;1999.90;999.90;;;6.60;99.90;;;;;;5034628;28;20352;-71
2023/12/22 00:45:52;;;;;;;1999.90;999.90;;;6.60;99.90;;;;;;5035169;28;20443;-71
2023/12/22 00:48:18;;;;;;;1999.90;999.90;;;6.50;99.90;;;;;;5034687;28;20025;-71
2023/12/22 00:50:43;;;;;;;1999.90;999.90;;;6.50;99.90;;;;;;5035042;28;20051;-71
2023/12/22 00:53:09;;;;;;;1999.90;999.90;;;6.60;99.90;;;;;;5034255;28;20520;-71
2023/12/22 00:55:35;;;;;;;1999.90;999.90;;;6.60;99.90;;;;;;5031955;28;20451;-71
2023/12/22 00:58:01;;;;;;;1999.90;999.90;;;6.60;99.90;;;;;;5033552;28;20302;-71
2023/12/22 01:00:27;;;;;;;1999.90;999.90;;;6.60;99.90;;;;;;5031338;28;20134;-71
2023/12/22 01:02:52;;;;;;;1999.90;999.90;;;6.70;99.90;;;;;;5034359;28;20421;-71
2023/12/22 01:05:18;;;;;;;1999.90;999.90;;;6.70;99.90;;;;;;5033996;28;20029;-71
2023/12/22 01:07:44;;;;;;;1999.90;999.90;;;6.70;99.90;;;;;;5032285;28;20031;-71
2023/12/22 01:10:09;;;;;;;1999.90;999.90;;;6.70;99.90;;;;;;5034586;28;20060;-71
2023/12/22 01:12:35;;;;;;;1999.90;999.90;;;6.80;99.90;;;;;;5032432;28;20091;-71
2023/12/22 01:15:01;;;;;;;1999.90;999.90;;;6.80;99.90;;;;;;5033111;28;20108;-71
2023/12/22 01:17:26;;;;;;;1999.90;999.90;;;6.80;99.90;;;;;;5033445;28;20033;-71
2023/12/22 01:19:52;;;;;;;1999.90;999.90;;;6.80;99.90;;;;;;5033829;28;20029;-71
2023/12/22 01:22:18;;;;;;;1999.90;999.90;;;6.80;99.90;;;;;;5023722;28;20112;-71
2023/12/22 01:24:45;;;;;;;1999.90;999.90;;;6.80;99.90;;;;;;5029895;28;20056;-71
2023/12/22 01:27:11;;;;;;;;;;;6.80;99.90;;;;;;5032342;28;20076;-71
2023/12/22 01:29:37;;;;;;;1999.90;999.90;;;6.70;99.90;;;;;;5031952;28;19909;-71
2023/12/22 01:32:03;;;;;;;1999.90;999.90;;;6.60;99.90;;;;;;5032385;28;20029;-70
2023/12/22 01:34:29;;;;;;;1999.90;999.90;;;6.60;99.90;;;;;;5032460;28;20025;-70
2023/12/22 01:36:54;;;;;;;1999.90;999.90;;;6.60;99.90;;;;;;5034397;28;20067;-70
2023/12/22 01:39:20;;;;;;;1999.90;999.90;;;6.60;99.90;;;;;;5027891;28;20032;-70
2023/12/22 01:41:46;;;;;;;1999.90;999.90;;;6.60;99.90;;;;;;5030316;28;20114;-71
2023/12/22 01:44:11;;;;;;;1999.90;999.90;;;6.60;99.90;;;;;;5034357;28;20112;-70
2023/12/22 01:46:38;;;;;;;1999.90;999.90;;;6.50;99.90;;;;;;5030227;28;20104;-71
2023/12/22 01:49:05;;;;;;;1999.90;999.90;;;6.50;99.90;;;;;;5023787;28;20025;-70
2023/12/22 01:51:34;;;;;;;1999.90;999.90;;;6.60;99.90;;;;;;5031711;28;20380;-70
2023/12/22 01:54:04;;;;;;;1999.90;999.90;;;6.70;99.90;;;;;;5039389;28;20072;-70
2023/12/22 01:56:30;;;;;;;1999.90;999.90;;;6.80;99.90;;;;;;5022560;28;20032;-70
2023/12/22 01:58:59;;;;;;;1999.90;999.90;;;6.90;99.90;;;;;;5019252;28;20344;-71
2023/12/22 02:01:26;;;;;;;1999.90;999.90;;;6.90;99.90;;;;;;5027260;28;20266;-71
2023/12/22 02:03:53;;;;;;;1999.90;999.90;;;6.90;99.90;;;;;;5026206;28;20059;-70
2023/12/22 02:06:20;;;;;;;1999.90;999.90;;;7.00;99.90;;;;;;5033065;28;20074;-71
2023/12/22 02:08:49;;;;;;;1999.90;999.90;;;7.00;99.90;;;;;;5033216;28;20053;-71
2023/12/22 02:11:15;;;;;;;1999.90;999.90;;;7.00;99.90;;;;;;5031746;28;20041;-74
2023/12/22 02:13:44;;;;;;;1999.90;999.90;;;7.00;99.90;;;;;;5032986;28;20048;-71
2023/12/22 02:16:29;;;;;;;1999.90;999.90;;;7.10;99.90;;;;;;5032623;28;20511;-71
2023/12/22 02:18:58;;;;;;;1999.90;999.90;;;7.20;99.90;;;;;;5031969;28;20080;-70
2023/12/22 02:21:24;;;;;;;1999.90;999.90;;;7.20;99.90;;;;;;5029354;28;20064;-69
2023/12/22 02:23:50;;;;;;;1999.90;999.90;;;7.40;99.90;;;;;;5033085;28;20618;-70
2023/12/22 02:26:42;;;;;;;1999.90;999.90;;;7.50;99.90;;;;;;5027289;28;20336;-70
2023/12/22 02:29:11;;;;;;;1999.90;999.90;;;7.60;99.90;;;;;;5029074;28;20120;-71
2023/12/22 02:31:44;;;;;;;1999.90;999.90;;;7.60;99.90;;;;;;5030087;28;20033;-70
2023/12/22 02:34:19;;;;;;;1999.90;999.90;;;7.70;99.90;;;;;;5032867;28;20120;-70
2023/12/22 02:36:47;;;;;;;1999.90;999.90;;;7.80;99.90;;;;;;5031826;28;20021;-70
2023/12/22 02:39:14;;;;;;;1999.90;999.90;;;7.90;99.90;;;;;;5032524;28;20022;-70
2023/12/22 02:41:41;;;;;;;1999.90;999.90;;;7.90;99.90;;;;;;5031075;28;20060;-70
2023/12/22 02:44:07;;;;;;;;;;;8.00;99.90;;;;;;5031688;28;20037;-71
2023/12/22 02:46:32;;;;;;;1999.90;999.90;;;8.00;99.90;;;;;;5032000;28;19996;-70
2023/12/22 02:48:58;;;;;;;1999.90;999.90;;;7.90;99.90;;;;;;5031027;28;20048;-70
2023/12/22 02:51:24;;;;;;;1999.90;999.90;;;7.80;99.90;;;;;;5032871;28;20033;-71
2023/12/22 02:53:49;;;;;;;1999.90;999.90;;;7.90;99.90;;;;;;5031405;28;20083;-70
2023/12/22 02:56:15;;;;;;;1999.90;999.90;;;8.00;99.90;;;;;;5026976;28;20029;-70
2023/12/22 02:58:41;;;;;;;1999.90;999.90;;;8.10;99.90;;;;;;5029146;28;20325;-71
2023/12/22 03:01:07;;;;;;;1999.90;999.90;;;8.10;99.90;;;;;;5031808;28;20030;-71
2023/12/22 03:03:32;;;;;;;1999.90;999.90;;;8.20;99.90;;;;;;5031869;28;20100;-71
2023/12/22 03:05:58;;;;;;;1999.90;999.90;;;8.10;99.90;;;;;;5029281;28;20490;-71
2023/12/22 03:08:24;;;;;;;1999.90;999.90;;;8.20;99.90;;;;;;5034800;28;20087;-71
2023/12/22 03:10:49;;;;;;;1999.90;999.90;;;8.30;99.90;;;;;;5038878;28;20025;-71
2023/12/22 03:13:15;;;;;;;1999.90;999.90;;;8.20;99.90;;;;;;5035636;28;20321;-72
2023/12/22 03:15:41;;;;;;;1999.90;999.90;;;8.20;99.90;;;;;;5041056;28;20032;-70
2023/12/22 03:18:06;;;;;;;1999.90;999.90;;;8.40;99.90;;;;;;5037888;28;20081;-71
2023/12/22 03:20:32;;;;;;;1999.90;999.90;;;8.40;99.90;;;;;;5037646;28;20120;-70
2023/12/22 03:22:58;;;;;;;1999.90;999.90;;;8.40;99.90;;;;;;5035038;28;20029;-70
2023/12/22 03:25:24;;;;;;;1999.90;999.90;;;8.40;99.90;;;;;;5044341;28;20022;-70
2023/12/22 03:27:50;;;;;;;1999.90;999.90;;;8.40;99.90;;;;;;5033930;28;20113;-71
2023/12/22 03:30:16;;;;;;;1999.90;999.90;;;7.00;99.90;;;;;;5025466;28;20357;-72
2023/12/22 03:32:41;;;;;;;1999.90;999.90;;;6.40;99.90;;;;;;5034937;28;20038;-71
2023/12/22 03:35:07;;;;;;;1999.90;999.90;;;6.10;99.90;;;;;;5037252;28;20415;-71
2023/12/22 03:37:33;;;;;;;1999.90;999.90;;;6.10;99.90;;;;;;5038670;28;20040;-71
2023/12/22 03:39:59;;;;;;;1999.90;999.90;;;6.10;99.90;;;;;;5030898;28;20060;-71
2023/12/22 03:42:24;;;;;;;1999.90;999.90;;;6.20;99.90;;;;;;5038500;28;20045;-72
2023/12/22 03:44:50;;;;;;;1999.90;999.90;;;6.20;99.90;;;;;;5032598;28;20036;-71
2023/12/22 03:47:16;;;;;;;1999.90;999.90;;;6.20;99.90;;;;;;5030568;28;20037;-72
2023/12/22 03:49:42;;;;;;;1999.90;999.90;;;6.30;99.90;;;;;;5024138;28;20037;-71
2023/12/22 03:52:07;;;;;;;1999.90;999.90;;;6.30;99.90;;;;;;5030651;28;20030;-71
2023/12/22 03:54:33;;;;;;;1999.90;999.90;;;6.30;99.90;;;;;;5032832;28;20040;-72
2023/12/22 03:56:59;;;;;;;1999.90;999.90;;;6.40;99.90;;;;;;5033900;28;20072;-71
2023/12/22 03:59:24;;;;;;;1999.90;999.90;;;6.40;99.90;;;;;;5034874;28;20325;-72
2023/12/22 04:01:52;;;;;;;1999.90;999.90;;;6.50;99.90;;;;;;5035520;28;20366;-71
2023/12/22 04:04:18;;;;;;;1999.90;999.90;;;6.50;99.90;;;;;;5035868;28;20021;-71
2023/12/22 04:06:44;;;;;;;1999.90;999.90;;;6.50;99.90;;;;;;5036514;28;20053;-72
2023/12/22 04:09:10;;;;;;;1999.90;999.90;;;6.50;99.90;;;;;;5033176;28;20064;-71
2023/12/22 04:11:37;;;;;;;1999.90;999.90;;;6.50;99.90;;;;;;5030235;28;20360;-71
2023/12/22 04:14:03;;;;;;;1999.90;999.90;;;6.60;99.90;;;;;;5036034;28;20382;-71
2023/12/22 04:16:28;;;;;;;1999.90;999.90;;;6.60;99.90;;;;;;5028673;28;20068;-71
2023/12/22 04:18:54;;;;;;;1999.90;999.90;;;6.70;99.90;;;;;;5032762;28;20090;-71
2023/12/22 04:21:20;;;;;;;1999.90;999.90;;;6.80;99.90;;;;;;5030942;28;20069;-71
2023/12/22 04:23:45;;;;;;;1999.90;999.90;;;6.80;99.90;;;;;;5034911;28;20029;-72
2023/12/22 04:26:11;;;;;;;1999.90;999.90;;;6.80;99.90;;;;;;5031162;28;20029;-71
2023/12/22 04:28:37;;;;;;;1999.90;999.90;;;6.80;99.90;;;;;;5033761;28;20368;-71
2023/12/22 04:31:03;;;;;;;1999.90;999.90;;;6.80;99.90;;;;;;5034348;28;20026;-71
2023/12/22 04:33:28;;;;;;;1999.90;999.90;;;6.90;99.90;;;;;;5031109;28;20048;-71
2023/12/22 04:35:54;;;;;;;1999.90;999.90;;;6.90;99.90;;;;;;5035907;28;20025;-70
2023/12/22 04:38:20;;;;;;;1999.90;999.90;;;6.90;99.90;;;;;;5029016;28;20056;-71
2023/12/22 04:40:46;;;;;;;1999.90;999.90;;;7.10;99.90;;;;;;5032007;28;20107;-71
2023/12/22 04:43:12;;;;;;;;;;;7.10;99.90;;;;;;5032282;28;20057;-71
2023/12/22 04:45:38;;;;;;;1999.90;999.90;;;7.10;99.90;;;;;;5034274;28;20207;-71
2023/12/22 04:48:04;;;;;;;1999.90;999.90;;;7.10;99.90;;;;;;5033574;28;20071;-71
2023/12/22 04:50:30;;;;;;;1999.90;999.90;;;7.10;99.90;;;;;;5029868;28;20038;-71
2023/12/22 04:52:56;;;;;;;1999.90;999.90;;;7.30;99.90;;;;;;5034896;28;20029;-71
2023/12/22 04:55:22;;;;;;;1999.90;999.90;;;7.40;99.90;;;;;;5033742;28;20030;-70
2023/12/22 04:57:47;;;;;;;1999.90;999.90;;;7.50;99.90;;;;;;5034809;28;20021;-70
2023/12/22 05:00:13;;;;;;;1999.90;999.90;;;7.60;99.90;;;;;;5025070;28;20087;-71
2023/12/22 05:02:39;;;;;;;1999.90;999.90;;;7.70;99.90;;;;;;5030532;28;20413;-70
2023/12/22 05:05:06;;;;;;;1999.90;999.90;;;7.90;99.90;;;;;;5033752;28;20349;-71
2023/12/22 05:07:31;;;;;;;1999.90;999.90;;;7.90;99.90;;;;;;5034334;28;20057;-70
2023/12/22 05:09:57;;;;;;;1999.90;999.90;;;7.90;99.90;;;;;;5034865;28;20447;-70
2023/12/22 05:12:23;;;;;;;1999.90;999.90;;;8.10;99.90;;;;;;5033025;28;20053;-71
2023/12/22 05:14:48;;;;;;;1999.90;999.90;;;8.10;99.90;;;;;;5034253;28;20026;-71
2023/12/22 05:17:14;;;;;;;1999.90;999.90;;;8.10;99.90;;;;;;5034767;28;20464;-70
2023/12/22 05:19:40;;;;;;;1999.90;999.90;;;8.20;99.90;;;;;;5034184;28;20033;-70
2023/12/22 05:22:05;;;;;;;1999.90;999.90;;;8.20;99.90;;;;;;5034675;28;20056;-70
2023/12/22 05:24:31;;;;;;;1999.90;999.90;;;8.20;99.90;;;;;;5033826;28;20030;-70
2023/12/22 05:26:57;;;;;;;1999.90;999.90;;;8.20;99.90;;;;;;5033845;28;20589;-70
2023/12/22 05:29:22;;;;;;;1999.90;999.90;;;8.30;99.90;;;;;;5032572;28;20034;-70
2023/12/22 05:31:49;;;;;;;1999.90;999.90;;;8.30;99.90;;;;;;5034179;28;20116;-70
2023/12/22 05:34:15;;;;;;;1999.90;999.90;;;8.30;99.90;;;;;;5034033;28;20112;-70
2023/12/22 05:36:40;;;;;;;1999.90;999.90;;;8.40;99.90;;;;;;5033762;28;20100;-70
2023/12/22 05:39:09;;;;;;;1999.90;999.90;;;8.40;99.90;;;;;;5034010;28;20026;-70
2023/12/22 05:41:37;;;;;;;1999.90;999.90;;;8.40;99.90;;;;;;5033320;28;20037;-71
2023/12/22 05:44:06;;;;;;;1999.90;999.90;;;8.50;99.90;;;;;;5031028;28;20083;-71
2023/12/22 05:46:36;;;;;;;1999.90;999.90;;;8.50;99.90;;;;;;5032257;28;20025;-70
2023/12/22 05:49:02;;;;;;;1999.90;999.90;;;8.40;99.90;;;;;;5028794;28;20029;-71
2023/12/22 05:51:28;;;;;;;1999.90;999.90;;;8.50;99.90;;;;;;5028845;28;20120;-72
2023/12/22 05:53:54;;;;;;;1999.90;999.90;;;8.50;99.90;;;;;;5033043;28;20409;-70
2023/12/22 05:56:20;;;;;;;1999.90;999.90;;;8.60;99.90;;;;;;5032766;28;20164;-71
2023/12/22 05:58:48;;;;;;;1999.90;999.90;;;8.60;99.90;;;;;;5026271;28;20022;-70
2023/12/22 06:01:18;;;;;;;1999.90;999.90;;;8.50;99.90;;;;;;5031817;28;20033;-70
2023/12/22 06:03:44;;;;;;;1999.90;999.90;;;8.60;99.90;;;;;;5032914;28;20072;-70
2023/12/22 06:06:10;;;;;;;1999.90;999.90;;;8.60;99.90;;;;;;5030250;28;20025;-70
2023/12/22 06:08:38;;;;;;;1999.90;999.90;;;8.60;99.90;;;;;;5033013;28;20049;-70
2023/12/22 06:11:04;;;;;;;1999.90;999.90;;;8.60;99.90;;;;;;5032342;28;20021;-70
2023/12/22 06:13:31;;;;;;;1999.90;999.90;;;8.70;99.90;;;;;;5032913;28;20037;-71
2023/12/22 06:15:56;;;;;;;1999.90;999.90;;;8.80;99.90;;;;;;5032733;28;20087;-70
2023/12/22 06:18:22;;;;;;;1999.90;999.90;;;8.80;99.90;;;;;;5033776;28;20064;-72
2023/12/22 06:20:48;;;;;;;1999.90;999.90;;;8.80;99.90;;;;;;5033528;28;20090;-71
2023/12/22 06:23:14;;;;;;;1999.90;999.90;;;8.80;99.90;;;;;;5026196;28;20056;-70
2023/12/22 06:25:39;;;;;;;1999.90;999.90;;;8.80;99.90;;;;;;5030543;28;20039;-70
2023/12/22 06:28:05;;;;;;;1999.90;999.90;;;8.80;99.90;;;;;;5029443;28;20039;-70
2023/12/22 06:30:31;;;;;;;1999.90;999.90;;;8.90;99.90;;;;;;5031406;28;20029;-71
2023/12/22 06:32:57;;;;;;;1999.90;999.90;;;8.80;99.90;;;;;;5034555;28;20159;-70
2023/12/22 06:35:25;;;;;;;1999.90;999.90;;;8.80;99.90;;;;;;5037796;28;20110;-70
2023/12/22 06:37:51;;;;;;;1999.90;999.90;;;8.90;99.90;;;;;;5031680;28;20087;-71
2023/12/22 06:40:21;;;;;;;1999.90;999.90;;;8.90;99.90;;;;;;5026092;28;20032;-71
2023/12/22 06:42:46;;;;;;;1999.90;999.90;;;8.90;99.90;;;;;;5022855;28;20045;-70
2023/12/22 06:45:12;;;;;;;1999.90;999.90;;;9.00;99.90;;;;;;5030082;28;20436;-71
2023/12/22 06:47:38;;;;;;;1999.90;999.90;;;8.90;99.90;;;;;;5033942;28;20083;-71
2023/12/22 06:50:04;;;;;;;1999.90;999.90;;;9.00;99.90;;;;;;5033636;28;20029;-72
2023/12/22 06:52:30;;;;;;;1999.90;999.90;;;9.00;99.90;;;;;;5037669;28;20036;-71
2023/12/22 06:54:56;;;;;;;1999.90;999.90;;;9.00;99.90;;;;;;5025869;28;20034;-71
2023/12/22 06:57:22;;;;;;;1999.90;999.90;;;9.00;99.90;;;;;;5026936;28;20146;-71
2023/12/22 06:59:50;;;;;;;1999.90;999.90;;;9.00;99.90;;;;;;5029108;28;20116;-71
2023/12/22 07:02:16;;;;;;;1999.90;999.90;;;9.10;99.90;;;;;;5027617;28;20090;-71
2023/12/22 07:05:25;;;;;;;1999.90;999.90;;;9.10;99.90;;;;;;5030014;28;20412;-70
2023/12/22 07:07:50;;;;;;;1999.90;999.90;;;9.10;99.90;;;;;;5028400;28;20350;-70
2023/12/22 07:10:16;;;;;;;1999.90;999.90;;;9.10;99.90;;;;;;5030215;28;20863;-72
2023/12/22 07:12:42;;;;;;;1999.90;999.90;;;9.10;99.90;;;;;;5027755;28;20060;-71
2023/12/22 07:15:08;;;;;;;1999.90;999.90;;;9.00;99.90;;;;;;5030832;28;20029;-70
2023/12/22 07:17:34;;;;;;;1999.90;999.90;;;9.00;99.90;;;;;;5027684;28;20108;-71
2023/12/22 07:20:02;;;;;;;1999.90;999.90;;;9.10;99.90;;;;;;5031297;28;20025;-71
2023/12/22 07:22:28;;;;;;;1999.90;999.90;;;9.10;99.90;;;;;;5030742;28;20116;-70
2023/12/22 07:24:55;;;;;;;1999.90;999.90;;;9.10;99.90;;;;;;5027031;28;20209;-70
2023/12/22 07:27:21;;;;;;;1999.90;999.90;;;9.10;99.90;;;;;;5029258;28;20021;-70
2023/12/22 07:29:47;;;;;;;1999.90;999.90;;;9.10;99.90;;;;;;5038648;28;20116;-70
2023/12/22 07:32:12;;;;;;;1999.90;999.90;;;9.10;99.90;;;;;;5036384;28;20394;-70
2023/12/22 07:34:38;;;;;;;1999.90;999.90;;;9.10;99.90;;;;;;5027117;28;20018;-71
2023/12/22 07:37:04;;;;;;;1999.90;999.90;;;9.10;99.90;;;;;;5037317;28;20024;-71
2023/12/22 07:39:30;;;;;;;1999.90;999.90;;;9.00;99.90;;;;;;5037584;28;20021;-71
2023/12/22 07:41:56;;;;;;;1999.90;999.90;;;8.70;99.90;;;;;;5033751;28;20096;-70
2023/12/22 07:44:22;;;;;;;1999.90;999.90;;;8.60;99.90;;;;;;5037185;28;20025;-70
2023/12/22 07:46:58;;;;;;;1999.90;999.90;;;8.60;99.90;;;;;;5039739;28;20033;-70
2023/12/22 07:49:24;;;;;;;1999.90;999.90;;;8.60;99.90;;;;;;5037448;28;20121;-71
2023/12/22 07:51:51;;;;;;;1999.90;999.90;;;8.60;99.90;;;;;;5038964;28;20116;-70
2023/12/22 07:54:17;;;;;;;1999.90;999.90;;;8.70;99.90;;;;;;5037507;28;20029;-71
2023/12/22 07:56:43;;;;;;;1999.90;999.90;;;8.70;99.90;;;;;;5046283;28;20044;-71
2023/12/22 07:59:08;;;;;;;1999.90;999.90;;;8.80;99.90;;;;;;5027985;28;20037;-71
2023/12/22 08:01:35;;;;;;;1999.90;999.90;;;8.80;99.90;;;;;;5036819;28;20476;-70
2023/12/22 08:04:01;;;;;;;1999.90;999.90;;;8.90;99.90;;;;;;5032110;28;20071;-72
2023/12/22 08:06:26;;;;;;;1999.90;999.90;;;8.80;99.90;;;;;;5042209;28;20029;-70
2023/12/22 08:08:54;;;;;;;1999.90;999.90;;;8.90;99.90;;;;;;5040184;28;20056;-71
2023/12/22 08:11:20;;;;;;;1999.90;999.90;;;8.90;99.90;;;;;;5036545;28;20598;-71
2023/12/22 08:13:47;;;;;;;1999.90;999.90;;;8.90;99.90;;;;;;5037759;28;20018;-70
2023/12/22 08:16:13;;;;;;;1999.90;999.90;;;8.90;99.90;;;;;;5041906;28;20371;-71
2023/12/22 08:18:38;;;;;;;1999.90;999.90;;;8.90;99.90;;;;;;5041677;28;20018;-71
2023/12/22 08:21:06;;;;;;;1999.90;999.90;;;8.80;99.90;;;;;;5041690;28;20021;-70
2023/12/22 08:23:31;;;;;;;1999.90;999.90;;;8.80;99.90;;;;;;5040330;28;20028;-70
2023/12/22 08:25:58;;;;;;;1999.90;999.90;;;8.80;99.90;;;;;;5040816;28;20168;-70
2023/12/22 08:28:23;;;;;;;1999.90;999.90;;;8.80;99.90;;;;;;5033240;28;20028;-71
2023/12/22 08:30:49;;;;;;;1999.90;999.90;;;8.80;99.90;;;;;;5033252;28;20033;-71
2023/12/22 08:33:15;;;;;;;1999.90;999.90;;;8.80;99.90;;;;;;5034348;28;20486;-71
2023/12/22 08:35:41;;;;;;;1999.90;999.90;;;8.90;99.90;;;;;;5029973;28;20104;-71
2023/12/22 08:38:07;;;;;;;1999.90;999.90;;;8.90;99.90;;;;;;5042507;28;20017;-71
2023/12/22 08:40:33;;;;;;;1999.90;999.90;;;9.00;99.90;;;;;;5035668;28;20428;-71
2023/12/22 08:42:59;;;;;;;1999.90;999.90;;;9.00;99.90;;;;;;5050736;28;20045;-71
2023/12/22 08:45:29;;;;;;;1999.90;999.90;;;9.10;99.90;;;;;;5034406;28;20034;-71
2023/12/22 08:47:56;;;;;;;1999.90;999.90;;;9.10;99.90;;;;;;5023477;28;20033;-71
2023/12/22 08:50:21;;;;;;;1999.90;999.90;;;9.10;99.90;;;;;;5041324;28;20036;-71
2023/12/22 08:52:47;;;;;;;1999.90;999.90;;;9.20;99.90;;;;;;5044624;28;20108;-71
2023/12/22 08:55:13;;;;;;;1999.90;999.90;;;9.30;99.90;;;;;;5052134;28;20029;-70
2023/12/22 08:57:39;;;;;;;1999.90;999.90;;;9.30;99.90;;;;;;5033397;28;20597;-71
2023/12/22 09:00:07;;;;;;;1999.90;999.90;;;9.30;99.90;;;;;;5041961;28;20025;-71
2023/12/22 09:02:33;;;;;;;1999.90;999.90;;;9.30;99.90;;;;;;5037691;28;20050;-70
2023/12/22 09:04:59;;;;;;;1999.90;999.90;;;9.30;99.90;;;;;;5050131;28;20416;-71
2023/12/22 09:07:24;;;;;;;1999.90;999.90;;;9.30;99.90;;;;;;5036258;28;20416;-71
2023/12/22 09:09:50;;;;;;;1999.90;999.90;;;9.30;99.90;;;;;;5042334;28;20037;-71
2023/12/22 09:12:16;;;;;;;1999.90;999.90;;;9.30;99.90;;;;;;5041718;28;20192;-71
2023/12/22 09:14:42;;;;;;;1999.90;999.90;;;9.30;99.90;;;;;;5050020;28;20451;-71
2023/12/22 09:17:07;;;;;;;1999.90;999.90;;;9.10;99.90;;;;;;5040300;28;20021;-71
2023/12/22 09:19:34;;;;;;;1999.90;999.90;;;9.00;99.90;;;;;;5044545;28;20025;-71
2023/12/22 09:22:00;;;;;;;1999.90;999.90;;;9.00;99.90;;;;;;5035347;28;20018;-71
2023/12/22 09:24:25;;;;;;;1999.90;999.90;;;8.90;99.90;;;;;;5031779;28;20041;-72
2023/12/22 09:26:52;;;;;;;1999.90;999.90;;;8.90;99.90;;;;;;5040283;28;20638;-71
2023/12/22 09:29:17;;;;;;;1999.90;999.90;;;8.90;99.90;;;;;;5038582;28;20045;-71
2023/12/22 09:31:43;;;;;;;1999.90;999.90;;;8.90;99.90;;;;;;5038657;28;20088;-71
2023/12/22 09:34:09;;;;;;;1999.90;999.90;;;8.90;99.90;;;;;;5035150;28;20021;-71
2023/12/22 09:36:34;;;;;;;1999.90;999.90;;;9.00;99.90;;;;;;5042775;28;20021;-70
2023/12/22 09:39:00;;;;;;;1999.90;999.90;;;9.00;99.90;;;;;;5039902;28;20034;-71
2023/12/22 09:41:26;;;;;;;1999.90;999.90;;;9.00;99.90;;;;;;5042734;28;20034;-71
2023/12/22 09:43:54;;;;;;;1999.90;999.90;;;9.20;99.90;;;;;;5037391;28;20029;-72
2023/12/22 09:46:21;;;;;;;1999.90;999.90;;;9.30;99.90;;;;;;5036715;28;20033;-71
2023/12/22 09:48:47;;;;;;;;;;;9.50;99.90;;;;;;5035693;28;20057;-72
2023/12/22 09:51:15;;;;;;;1999.90;999.90;;;9.60;99.90;;;;;;5035371;28;19909;-70
2023/12/22 09:53:41;;;;;;;1999.90;999.90;;;9.70;99.90;;;;;;5030642;28;20052;-71
2023/12/22 09:56:08;;;;;;;1999.90;999.90;;;9.80;99.90;;;;;;5033810;28;20573;-71
2023/12/22 09:58:35;;;;;;;1999.90;999.90;;;9.80;99.90;;;;;;5030934;28;20056;-71
2023/12/22 10:01:05;;;;;;;1999.90;999.90;;;9.90;99.90;;;;;;5032964;28;20025;-70
2023/12/22 10:03:33;;;;;;;1999.90;999.90;;;9.90;99.90;;;;;;5033888;28;20102;-70
2023/12/22 10:05:59;;;;;;;1999.90;999.90;;;9.90;99.90;;;;;;5033567;28;20025;-71
2023/12/22 10:08:26;;;;;;;1999.90;999.90;;;10.00;99.90;;;;;;5030329;28;20167;-71
2023/12/22 10:10:54;;;;;;;1999.90;999.90;;;10.00;99.90;;;;;;5028591;28;20065;-71
2023/12/22 10:13:19;;;;;;;1999.90;999.90;;;10.00;99.90;;;;;;5038435;28;20468;-71
2023/12/22 10:15:46;;;;;;;1999.90;999.90;;;10.00;99.90;;;;;;5027064;28;20136;-71
2023/12/22 10:18:12;;;;;;;;;;;10.00;99.90;;;;;;5036053;28;20041;-71
2023/12/22 10:20:39;;;;;;;1999.90;999.90;;;10.00;99.90;;;;;;5034174;28;19909;-71
2023/12/22 10:23:04;;;;;;;1999.90;999.90;;;10.00;99.90;;;;;;5040635;28;20057;-71
2023/12/22 10:25:30;;;;;;;1999.90;999.90;;;10.00;99.90;;;;;;5033442;28;20060;-71
2023/12/22 10:27:56;;;;;;;1999.90;999.90;;;10.10;99.90;;;;;;5031170;28;20026;-70
2023/12/22 10:30:24;;;;;;;1999.90;999.90;;;10.00;99.90;;;;;;5029933;28;20519;-71
2023/12/22 10:32:53;;;;;;;1999.90;999.90;;;10.00;99.90;;;;;;5029854;28;20035;-71
2023/12/22 10:35:20;;;;;;;1999.90;999.90;;;10.00;99.90;;;;;;5036254;28;20317;-70
2023/12/22 10:37:48;;;;;;;1999.90;999.90;;;10.10;99.90;;;;;;5032487;28;20067;-71
2023/12/22 10:40:14;;;;;;;1999.90;999.90;;;10.10;99.90;;;;;;5035246;28;20071;-71
2023/12/22 10:42:43;;;;;;;1999.90;999.90;;;10.20;99.90;;;;;;5030477;28;20041;-71
2023/12/22 10:45:09;;;;;;;1999.90;999.90;;;10.20;99.90;;;;;;5023448;28;20026;-71
2023/12/22 10:47:34;;;;;;;1999.90;999.90;;;10.30;99.90;;;;;;5027725;28;20036;-71
2023/12/22 10:50:06;;;;;;;1999.90;999.90;;;10.20;99.90;;;;;;5030574;28;20124;-71
2023/12/22 10:52:33;;;;;;;1999.90;999.90;;;10.20;99.90;;;;;;5030123;28;20034;-71
2023/12/22 10:54:59;;;;;;;;;;;10.20;99.90;;;;;;5025837;28;20018;-70
2023/12/22 10:57:26;;;;;;;1999.90;999.90;;;10.20;99.90;;;;;;5033189;28;19919;-72
2023/12/22 10:59:55;;;;;;;1999.90;999.90;;;10.20;99.90;;;;;;5032168;28;20391;-71
2023/12/22 11:02:23;;;;;;;1999.90;999.90;;;10.20;99.90;;;;;;5031644;28;20088;-71
2023/12/22 11:05:02;;;;;;;1999.90;999.90;;;10.20;99.90;;;;;;5045057;28;20040;-70
2023/12/22 11:07:29;;;;;;;1999.90;999.90;;;10.30;99.90;;;;;;5043461;28;20086;-71
2023/12/22 11:09:56;;;;;;;;;;;10.30;99.90;;;;;;5035276;28;20040;-70
2023/12/22 11:12:23;;;;;;;1999.90;999.90;;;10.30;99.90;;;;;;5040222;28;20008;-70
2023/12/22 11:14:50;;;;;;;;;;;10.40;99.90;;;;;;5037758;28;20032;-70
2023/12/22 11:17:20;;;;;;;1999.90;999.90;;;10.40;99.90;;;;;;5035620;28;19955;-71
2023/12/22 11:19:49;;;;;;;1999.90;999.90;;;10.40;99.90;;;;;;5039181;28;20038;-71
2023/12/22 11:22:16;;;;;;;1999.90;999.90;;;10.40;99.90;;;;;;5041365;28;20029;-71
2023/12/22 11:24:44;;;;;;;1999.90;999.90;;;10.50;99.90;;;;;;5037871;28;20031;-71
2023/12/22 11:27:11;;;;;;;1999.90;999.90;;;10.50;99.90;;;;;;5044371;28;20105;-71
2023/12/22 11:29:39;;;;;;;1999.90;999.90;;;10.50;99.90;;;;;;5046060;28;20314;-71
2023/12/22 11:32:06;;;;;;;1999.90;999.90;;;10.50;99.90;;;;;;5039759;28;20108;-70
2023/12/22 11:34:36;;;;;;;1999.90;999.90;;;10.50;99.90;;;;;;5042213;28;20103;-71
2023/12/22 11:37:04;;;;;;;1999.90;999.90;;;10.40;99.90;;;;;;5040579;28;20075;-70
2023/12/22 11:39:30;;;;;;;1999.90;999.90;;;10.50;99.90;;;;;;5030793;28;20022;-71
2023/12/22 11:41:57;;;;;;;1999.90;999.90;;;10.50;99.90;;;;;;5037174;28;20043;-70
2023/12/22 11:44:23;;;;;;;1999.90;999.90;;;10.50;99.90;;;;;;5032775;28;20048;-71
2023/12/22 11:46:49;;;;;;;1999.90;999.90;;;10.50;99.90;;;;;;5031358;28;20029;-71
2023/12/22 11:49:15;;;;;;;1999.90;999.90;;;10.50;99.90;;;;;;5033882;28;20528;-71
2023/12/22 11:51:40;;;;;;;1999.90;999.90;;;10.60;99.90;;;;;;5034707;28;20436;-71
2023/12/22 11:54:45;;;;;;;1999.90;999.90;;;10.60;99.90;;;;;;5036139;28;20021;-70
2023/12/22 11:57:33;;;;;;;1999.90;999.90;;;10.60;99.90;;;;;;5034190;28;20332;-71
2023/12/22 12:00:03;;;;;;;1999.90;999.90;;;10.60;99.90;;;;;;5036344;28;20021;-70
2023/12/22 12:02:30;;;;;;;1999.90;999.90;;;10.60;99.90;;;;;;5042048;28;20044;-70
2023/12/22 12:05:02;;;;;;;1999.90;999.90;;;10.70;99.90;;;;;;5044148;28;20317;-71
2023/12/22 12:07:45;;;;;;;1999.90;999.90;;;10.70;99.90;;;;;;5036948;28;20032;-70
2023/12/22 12:10:33;;;;;;;1999.90;999.90;;;10.80;99.90;;;;;;5039064;28;20064;-70